Time;durP1;ratioP1;P1;durP2;ratioP2;P2;SDS_P1;SDS_P2;PMS_P1;PMS_P2;Temp;Humidity;BMP_temperature;BMP_pressure;BME280_temperature;BME280_humidity;BME280_pressure;Samples;Min_cycle;Max_cycle;Signal;HPM_P1;HPM_P2
2021/05/26 00:01:46;;;;;;;;;4.33;3.67;;;;;19.71;39.86;101058.28;5021784;28;56914;-57
2021/05/26 00:04:12;;;;;;;;;2.67;2.67;;;;;19.72;39.55;101055.59;5022135;28;52401;-57
2021/05/26 00:06:38;;;;;;;;;2.33;2.33;;;;;19.72;40.05;101057.34;5021998;28;46883;-58
2021/05/26 00:09:04;;;;;;;;;4.67;4.00;;;;;19.72;39.69;101049.47;5022376;28;45207;-57
2021/05/26 00:11:30;;;;;;;;;4.00;3.00;;;;;19.72;39.67;101055.59;5035265;28;45451;-57
2021/05/26 00:13:55;;;;;;;;;3.67;2.67;;;;;19.71;40.16;101045.97;5022349;28;45307;-58
2021/05/26 00:16:22;;;;;;;;;2.33;2.33;;;;;19.71;39.96;101047.75;5017341;28;67327;-58
2021/05/26 00:18:48;;;;;;;;;3.67;2.00;;;;;19.71;39.73;101042.47;5027943;28;45430;-57
2021/05/26 00:21:13;;;;;;;;;2.67;2.67;;;;;19.70;39.67;101039.00;5022092;28;45244;-59
2021/05/26 00:23:39;;;;;;;;;3.67;3.67;;;;;19.70;40.11;101027.59;5016139;28;45518;-58
2021/05/26 00:26:04;;;;;;;;;3.33;2.33;;;;;19.69;39.97;101029.38;5040245;28;46285;-58
2021/05/26 00:28:30;;;;;;;;;2.00;2.00;;;;;19.69;40.08;101023.22;5031585;28;45187;-58
2021/05/26 00:30:58;;;;;;;;;3.33;3.33;;;;;19.70;39.94;101024.94;5020801;28;45250;-58
2021/05/26 00:33:23;;;;;;;;;3.00;3.00;;;;;19.68;39.58;101010.97;5031193;28;45228;-56
2021/05/26 00:35:48;;;;;;;;;3.33;3.00;;;;;19.68;39.62;101005.72;5024855;28;45339;-57
2021/05/26 00:38:15;;;;;;;;;2.33;2.33;;;;;19.68;39.96;100997.81;5021832;28;45346;-57
2021/05/26 00:40:40;;;;;;;;;2.00;2.00;;;;;19.68;39.91;100996.06;5020486;28;45352;-56
2021/05/26 00:43:06;;;;;;;;;2.00;2.00;;;;;19.68;40.20;100988.16;5020362;28;45355;-56
2021/05/26 00:45:31;;;;;;;;;3.67;2.67;;;;;19.67;40.00;100988.19;5020307;28;45356;-56
2021/05/26 00:47:57;;;;;;;;;3.33;3.33;;;;;19.66;40.13;100971.56;5021750;28;45292;-56
2021/05/26 00:50:32;;;;;;;;;3.00;3.00;;;;;19.66;39.83;100974.19;5020472;28;45339;-56
2021/05/26 00:53:02;;;;;;;;;4.00;1.33;;;;;19.66;40.13;100963.66;5022004;28;45302;-56
2021/05/26 00:55:27;;;;;;;;;1.67;1.67;;;;;19.65;39.65;100964.56;5022109;28;47558;-56
2021/05/26 00:57:53;;;;;;;;;4.33;4.33;;;;;19.67;39.86;100964.50;5029658;28;45232;-56
2021/05/26 01:00:21;;;;;;;;;3.00;3.00;;;;;19.64;39.75;100950.56;5021692;28;45216;-56
2021/05/26 01:02:49;;;;;;;;;3.00;3.00;;;;;19.64;40.09;100950.56;5021681;28;45553;-56
2021/05/26 01:05:15;;;;;;;;;1.67;1.67;;;;;19.64;39.77;100947.94;5021245;28;47166;-57
2021/05/26 01:07:41;;;;;;;;;3.00;3.00;;;;;19.64;39.81;100947.06;5021027;28;56145;-57
2021/05/26 01:10:12;;;;;;;;;3.00;3.00;;;;;19.63;40.07;100935.69;5026793;28;45339;-56
2021/05/26 01:12:37;;;;;;;;;4.33;3.33;;;;;19.63;40.07;100929.53;5028752;28;45322;-56
2021/05/26 01:15:05;;;;;;;;;3.67;3.67;;;;;19.63;40.29;100929.53;5021000;28;51340;-58
2021/05/26 01:17:32;;;;;;;;;3.67;2.00;;;;;19.63;40.25;100926.91;5021434;28;45234;-57
2021/05/26 01:19:57;;;;;;;;;2.33;2.33;;;;;19.62;40.25;100919.94;5021544;28;45280;-56
2021/05/26 01:22:23;;;;;;;;;2.67;2.67;;;;;19.62;39.68;100914.66;5024349;28;45347;-56
2021/05/26 01:24:48;;;;;;;;;5.33;3.00;;;;;19.62;39.62;100917.28;5024953;28;52697;-57
2021/05/26 01:27:15;;;;;;;;;1.33;1.33;;;;;19.62;39.79;100909.41;5025210;28;45244;-57
2021/05/26 01:29:40;;;;;;;;;4.00;3.00;;;;;19.61;39.55;100903.28;5023052;28;45296;-55
2021/05/26 01:32:05;;;;;;;;;3.33;2.33;;;;;19.61;40.14;100902.41;5024995;28;45497;-56
2021/05/26 01:34:31;;;;;;;;;4.00;4.00;;;;;19.61;40.00;100899.78;5024045;28;61913;-58
2021/05/26 01:36:57;;;;;;;;;3.00;3.00;;;;;19.61;39.98;100894.50;5023468;28;45408;-57
2021/05/26 01:39:22;;;;;;;;;7.00;2.33;;;;;19.60;39.74;100884.91;5024470;28;45316;-58
2021/05/26 01:41:48;;;;;;;;;3.00;2.67;;;;;19.59;39.87;100886.69;5024764;28;45295;-56
2021/05/26 01:44:13;;;;;;;;;3.00;3.00;;;;;19.59;39.96;100878.78;5041583;28;47452;-56
2021/05/26 01:46:40;;;;;;;;;3.00;3.00;;;;;19.59;40.39;100873.53;5043092;28;45326;-57
2021/05/26 01:49:05;;;;;;;;;4.33;3.00;;;;;19.59;39.82;100885.81;5043241;28;45406;-56
2021/05/26 01:51:32;;;;;;;;;3.00;3.00;;;;;19.59;39.80;100872.66;5033028;28;45265;-56
2021/05/26 01:53:57;;;;;;;;;3.67;3.67;;;;;19.59;40.24;100870.03;5024073;28;45320;-58
2021/05/26 01:56:24;;;;;;;;;3.33;2.67;;;;;19.59;40.36;100877.91;5022679;28;45421;-58
2021/05/26 01:58:51;;;;;;;;;3.67;2.67;;;;;19.58;39.76;100865.69;5024345;28;45532;-55
2021/05/26 02:01:17;;;;;;;;;3.67;3.67;;;;;19.58;40.09;100857.81;5024801;28;45419;-57
2021/05/26 02:03:44;;;;;;;;;3.00;3.00;;;;;19.57;40.33;100854.28;5022828;28;45339;-57
2021/05/26 02:06:11;;;;;;;;;2.67;2.67;;;;;19.57;40.37;100856.09;5024233;28;45462;-57
2021/05/26 02:08:36;;;;;;;;;3.00;3.00;;;;;19.57;39.71;100842.94;5024163;28;45426;-57
2021/05/26 02:13:46;;;;;;;;;3.67;3.67;;;;;19.56;39.76;100842.06;5044219;28;45863;-57
2021/05/26 02:16:11;;;;;;;;;3.33;3.33;;;;;19.55;40.26;100837.69;5043752;28;45282;-57
2021/05/26 02:18:37;;;;;;;;;3.00;3.00;;;;;19.56;40.00;100830.69;5029047;28;45234;-56
2021/05/26 02:21:02;;;;;;;;;4.33;3.33;;;;;19.55;40.16;100837.69;5024041;28;50169;-56
2021/05/26 02:23:28;;;;;;;;;3.00;2.00;;;;;19.56;39.81;100830.69;5024277;28;46020;-57
2021/05/26 02:25:53;;;;;;;;;4.00;3.00;;;;;19.55;40.36;100835.06;5022360;28;45253;-57
2021/05/26 02:28:18;;;;;;;;;3.33;3.33;;;;;19.55;40.05;100826.31;5023548;28;52062;-55
2021/05/26 02:30:43;;;;;;;;;3.00;2.00;;;;;19.55;39.95;100821.06;5023636;28;54672;-56
2021/05/26 02:33:09;;;;;;;;;3.67;3.00;;;;;19.55;40.24;100823.69;5022194;28;58080;-57
2021/05/26 02:35:34;;;;;;;;;3.33;3.33;;;;;19.54;40.23;100812.28;5034750;28;65120;-57
2021/05/26 02:38:00;;;;;;;;;4.67;3.00;;;;;19.54;40.22;100817.56;5029705;28;50518;-56
2021/05/26 02:40:25;;;;;;;;;5.00;4.00;;;;;19.53;40.23;100813.22;5029242;28;45292;-57
2021/05/26 02:42:51;;;;;;;;;3.00;3.00;;;;;19.53;39.94;100813.22;5022131;28;47447;-56
2021/05/26 02:45:16;;;;;;;;;1.33;1.33;;;;;19.52;39.99;100806.22;5022281;28;45405;-57
2021/05/26 02:47:42;;;;;;;;;4.00;4.00;;;;;19.52;40.12;100811.50;5023085;28;50194;-57
2021/05/26 02:50:08;;;;;;;;;4.67;2.67;;;;;19.53;40.40;100801.84;5022108;28;45352;-56
2021/05/26 02:52:33;;;;;;;;;3.00;2.67;;;;;19.52;40.06;100800.13;5023384;28;45331;-56
2021/05/26 02:54:58;;;;;;;;;5.00;4.00;;;;;19.52;40.14;100810.66;5023177;28;45332;-56
2021/05/26 02:57:24;;;;;;;;;4.00;3.00;;;;;19.51;40.05;100794.00;5023519;28;45392;-56
2021/05/26 02:59:49;;;;;;;;;2.67;2.67;;;;;19.51;40.33;100788.75;5023277;28;46895;-56
2021/05/26 03:02:15;;;;;;;;;4.00;3.00;;;;;19.52;40.14;100800.13;5022222;28;46255;-57
2021/05/26 03:04:40;;;;;;;;;3.33;3.33;;;;;19.50;40.52;100801.03;5023313;28;45270;-57
2021/05/26 03:07:05;;;;;;;;;3.00;3.00;;;;;19.50;40.31;100793.13;5023588;28;45291;-56
2021/05/26 03:09:31;;;;;;;;;4.67;3.33;;;;;19.50;40.29;100792.28;5021731;28;58072;-56
2021/05/26 03:11:56;;;;;;;;;3.00;3.00;;;;;19.50;40.18;100797.56;5035034;28;69067;-57
2021/05/26 03:14:21;;;;;;;;;3.00;3.00;;;;;19.50;40.42;100801.03;5022404;28;61819;-56
2021/05/26 03:16:47;;;;;;;;;3.67;3.67;;;;;19.50;40.46;100801.03;5023475;28;45304;-57
2021/05/26 03:19:12;;;;;;;;;6.33;3.00;;;;;19.50;40.56;100794.94;5023091;28;49453;-56
2021/05/26 03:21:39;;;;;;;;;3.33;3.00;;;;;19.49;40.47;100794.06;5023225;28;54060;-57
2021/05/26 03:24:04;;;;;;;;;4.00;4.00;;;;;19.49;40.29;100785.31;5024542;28;45227;-57
2021/05/26 03:26:30;;;;;;;;;3.00;3.00;;;;;19.49;40.43;100788.78;5041586;28;45225;-57
2021/05/26 03:28:55;;;;;;;;;4.00;2.67;;;;;19.48;40.60;100800.22;5028669;28;45612;-56
2021/05/26 03:31:21;;;;;;;;;4.67;3.00;;;;;19.49;40.07;100777.41;5021596;28;55363;-58
2021/05/26 03:33:46;;;;;;;;;5.67;4.00;;;;;19.48;40.29;100789.69;5022151;28;69645;-57
2021/05/26 03:36:12;;;;;;;;;3.00;3.00;;;;;19.49;40.46;100782.69;5022263;28;45303;-57
2021/05/26 03:38:37;;;;;;;;;4.00;3.00;;;;;19.48;40.61;100786.22;5023295;28;45244;-58
2021/05/26 03:41:02;;;;;;;;;3.00;3.00;;;;;19.48;40.32;100776.53;5022581;28;45415;-57
2021/05/26 03:43:28;;;;;;;;;3.33;3.33;;;;;19.47;40.64;100777.47;5022305;28;58423;-57
2021/05/26 03:45:53;;;;;;;;;3.67;3.67;;;;;19.46;40.22;100778.38;5022501;28;45296;-56
2021/05/26 03:48:19;;;;;;;;;2.67;2.67;;;;;19.46;40.54;100773.09;5022931;28;45375;-57
2021/05/26 03:50:44;;;;;;;;;4.00;3.33;;;;;19.47;40.64;100766.94;5022469;28;46103;-56
2021/05/26 03:53:10;;;;;;;;;3.33;3.00;;;;;19.46;40.75;100767.84;5022620;28;45276;-57
2021/05/26 03:55:35;;;;;;;;;2.67;2.67;;;;;19.46;40.51;100767.84;5022424;28;45324;-57
2021/05/26 03:58:00;;;;;;;;;6.00;5.00;;;;;19.46;40.38;100778.38;5020842;28;49900;-56
2021/05/26 04:00:26;;;;;;;;;3.00;2.00;;;;;19.46;40.31;100769.63;5021994;28;56349;-56
2021/05/26 04:02:51;;;;;;;;;3.33;3.33;;;;;19.45;40.17;100768.75;5022345;28;45409;-57
2021/05/26 04:05:17;;;;;;;;;2.00;2.00;;;;;19.45;40.43;100774.03;5022436;28;45247;-57
2021/05/26 04:07:43;;;;;;;;;2.00;2.00;;;;;19.45;40.28;100760.88;5033915;28;45313;-57
2021/05/26 04:10:09;;;;;;;;;3.00;3.00;;;;;19.45;40.64;100774.03;5022477;28;45295;-57
2021/05/26 04:12:35;;;;;;;;;3.00;3.00;;;;;19.46;40.75;100777.53;5033722;28;45422;-56
2021/05/26 04:15:00;;;;;;;;;2.00;2.00;;;;;19.45;40.46;100781.91;5042038;28;45339;-58
2021/05/26 04:17:26;;;;;;;;;3.00;3.00;;;;;19.45;40.26;100781.06;5018974;28;45355;-57
2021/05/26 04:19:52;;;;;;;;;4.00;4.00;;;;;19.45;40.51;100766.13;5022077;28;45944;-59
2021/05/26 04:22:17;;;;;;;;;1.67;1.67;;;;;19.45;40.29;100778.44;5022557;28;45414;-56
2021/05/26 04:24:47;;;;;;;;;6.00;5.00;;;;;19.45;40.44;100781.06;5022343;28;55380;-57
2021/05/26 04:27:12;;;;;;;;;4.00;3.00;;;;;19.44;40.34;100774.94;5022192;28;45281;-57
2021/05/26 04:29:38;;;;;;;;;3.00;3.00;;;;;19.45;40.39;100775.81;5021373;28;49882;-57
2021/05/26 04:32:04;;;;;;;;;3.00;2.67;;;;;19.44;40.45;100774.94;5013311;28;45451;-57
2021/05/26 04:34:29;;;;;;;;;3.00;3.00;;;;;19.43;40.54;100770.63;5021718;28;45264;-56
2021/05/26 04:36:55;;;;;;;;;3.00;2.67;;;;;19.44;40.63;100768.84;5021313;28;54001;-57
2021/05/26 04:39:20;;;;;;;;;2.67;2.67;;;;;19.44;40.32;100782.84;5021151;28;45407;-58
2021/05/26 04:41:45;;;;;;;;;3.00;3.00;;;;;19.43;40.56;100762.72;5021602;28;45268;-58
2021/05/26 04:44:11;;;;;;;;;4.33;2.33;;;;;19.43;40.62;100770.63;5027441;28;45296;-57
2021/05/26 04:46:36;;;;;;;;;2.67;2.67;;;;;19.43;40.49;100768.00;5041816;28;45307;-57
2021/05/26 04:49:02;;;;;;;;;3.67;3.67;;;;;19.44;40.48;100772.31;5040499;28;65610;-57
2021/05/26 04:51:28;;;;;;;;;3.33;3.00;;;;;19.43;40.52;100773.25;5041220;28;45427;-57
2021/05/26 04:53:53;;;;;;;;;3.00;1.00;;;;;19.43;40.59;100773.25;5041421;28;45649;-56
2021/05/26 04:56:18;;;;;;;;;2.33;2.33;;;;;19.43;40.34;100781.16;5041540;28;54514;-59
2021/05/26 04:58:44;;;;;;;;;1.33;1.00;;;;;19.43;41.05;100767.13;5044190;28;56467;-57
2021/05/26 05:01:10;;;;;;;;;2.00;2.00;;;;;19.42;40.45;100773.28;5045317;28;45314;-58
2021/05/26 05:03:36;;;;;;;;;3.00;3.00;;;;;19.42;40.58;100774.16;5009177;28;45269;-57
2021/05/26 05:06:03;;;;;;;;;4.00;2.33;;;;;19.42;40.94;100776.81;5025241;28;45234;-57
2021/05/26 05:08:28;;;;;;;;;2.00;2.00;;;;;19.42;40.79;100782.06;5042075;28;45304;-57
2021/05/26 05:10:55;;;;;;;;;2.33;2.00;;;;;19.42;40.87;100792.59;5044642;28;45318;-57
2021/05/26 05:13:21;;;;;;;;;2.67;2.00;;;;;19.43;41.05;100793.44;5031794;28;45394;-58
2021/05/26 05:15:46;;;;;;;;;2.00;2.00;;;;;19.42;40.80;100792.59;5032855;28;45468;-57
2021/05/26 05:18:12;;;;;;;;;2.00;2.00;;;;;19.42;40.88;100795.22;5024567;28;46760;-56
2021/05/26 05:20:37;;;;;;;;;2.00;2.00;;;;;19.42;40.99;100789.97;5024785;28;45315;-57
2021/05/26 05:23:03;;;;;;;;;2.00;2.00;;;;;19.42;40.98;100795.22;5024631;28;58400;-56
2021/05/26 05:25:28;;;;;;;;;2.67;2.00;;;;;19.43;40.92;100806.59;5043407;28;45349;-56
2021/05/26 05:27:53;;;;;;;;;2.00;2.00;;;;;19.42;41.10;100805.75;5026210;28;45382;-56
2021/05/26 05:30:19;;;;;;;;;1.33;1.33;;;;;19.42;40.79;100823.28;5024033;28;68158;-57
2021/05/26 05:32:45;;;;;;;;;3.00;3.00;;;;;19.42;40.97;100811.00;5024829;28;45391;-57
2021/05/26 05:35:10;;;;;;;;;1.00;1.00;;;;;19.43;40.85;100822.38;5024718;28;45533;-56
2021/05/26 05:37:36;;;;;;;;;2.00;2.00;;;;;19.43;41.11;100835.53;5024627;28;46272;-57
2021/05/26 05:40:02;;;;;;;;;2.00;2.00;;;;;19.42;41.05;100849.59;5024407;28;45179;-57
2021/05/26 05:42:28;;;;;;;;;2.00;2.00;;;;;19.42;41.28;100839.97;5023624;28;45360;-57
2021/05/26 05:44:54;;;;;;;;;2.67;2.67;;;;;19.43;41.26;100844.31;5023319;28;45294;-54
2021/05/26 05:47:19;;;;;;;;;1.00;1.00;;;;;19.43;41.07;100835.53;5024390;28;46153;-54
2021/05/26 05:49:45;;;;;;;;;1.33;1.33;;;;;19.44;40.98;100842.53;5023028;28;45323;-55
2021/05/26 05:52:11;;;;;;;;;1.67;0.67;;;;;19.44;41.02;100855.69;5024559;28;45643;-55
2021/05/26 05:54:37;;;;;;;;;1.00;1.00;;;;;19.43;41.46;100852.19;5023210;28;45308;-58
2021/05/26 05:57:03;;;;;;;;;0.67;0.67;;;;;19.44;41.05;100868.84;5040617;28;45450;-58
2021/05/26 05:59:28;;;;;;;;;2.33;2.33;;;;;19.44;41.74;100855.69;5042377;28;45262;-58
2021/05/26 06:01:54;;;;;;;;;1.33;1.33;;;;;19.44;41.66;100864.41;5026067;28;45343;-58
2021/05/26 06:04:19;;;;;;;;;2.67;2.33;;;;;19.45;41.37;100862.66;5024229;28;45547;-58
2021/05/26 06:06:44;;;;;;;;;1.67;1.67;;;;;19.46;41.48;100869.63;5023621;28;50860;-58
2021/05/26 06:09:10;;;;;;;;;6.00;3.67;;;;;19.46;41.47;100877.53;5022984;28;60579;-58
2021/05/26 06:11:35;;;;;;;;;3.00;3.00;;;;;19.47;42.18;100866.09;5037428;28;45256;-58
2021/05/26 06:14:05;;;;;;;;;5.00;4.00;;;;;19.46;41.94;100867.84;5022780;28;45494;-58
2021/05/26 06:16:37;;;;;;;;;4.00;4.00;;;;;19.46;42.09;100875.75;5023822;28;46036;-58
2021/05/26 06:19:03;;;;;;;;;7.00;7.00;;;;;19.47;42.00;100881.88;5023741;28;45252;-58
2021/05/26 06:21:29;;;;;;;;;6.00;5.67;;;;;19.46;42.11;100883.66;5023977;28;45254;-58
2021/05/26 06:23:54;;;;;;;;;6.00;6.00;;;;;19.47;42.30;100887.16;5024352;28;45221;-58
2021/05/26 06:26:20;;;;;;;;;7.00;5.67;;;;;19.48;42.28;100887.06;5021843;28;53211;-57
2021/05/26 06:28:45;;;;;;;;;5.00;5.00;;;;;19.48;42.45;100902.88;5034396;28;45611;-57
2021/05/26 06:31:13;;;;;;;;;6.00;6.00;;;;;19.48;42.32;100907.28;5024648;28;45484;-58
2021/05/26 06:33:42;;;;;;;;;3.67;3.67;;;;;19.48;41.99;100905.50;5026333;28;45582;-57
2021/05/26 06:36:07;;;;;;;;;5.33;3.67;;;;;19.48;42.59;100910.78;5042317;28;45354;-57
2021/05/26 06:38:32;;;;;;;;;3.67;3.67;;;;;19.50;42.36;100916.00;5042564;28;55043;-58
2021/05/26 06:40:58;;;;;;;;;3.33;3.33;;;;;19.51;42.54;100912.44;5041697;28;45288;-58
2021/05/26 06:43:23;;;;;;;;;3.00;3.00;;;;;19.52;42.23;100919.41;5042083;28;45428;-59
2021/05/26 06:45:49;;;;;;;;;4.33;4.33;;;;;19.54;42.51;100927.25;5041442;28;51323;-59
2021/05/26 06:48:14;;;;;;;;;4.00;4.00;;;;;19.55;42.32;100929.81;5030173;28;45404;-57
2021/05/26 06:50:40;;;;;;;;;4.33;3.00;;;;;19.56;42.55;100936.81;5032375;28;45386;-57
2021/05/26 06:53:05;;;;;;;;;3.00;3.00;;;;;19.57;42.84;100940.31;5024387;28;45504;-58
2021/05/26 06:55:30;;;;;;;;;3.00;2.00;;;;;19.60;42.69;100951.59;5022380;28;47200;-57
2021/05/26 06:57:56;;;;;;;;;3.67;3.67;;;;;19.63;42.60;100961.13;5033488;28;53791;-58
2021/05/26 07:00:21;;;;;;;;;1.67;1.67;;;;;19.65;42.71;100961.94;5041652;28;45457;-56
2021/05/26 07:02:47;;;;;;;;;2.00;2.00;;;;;19.66;42.82;100958.41;5042634;28;45491;-57
2021/05/26 07:05:12;;;;;;;;;2.00;2.00;;;;;19.67;42.88;100968.00;5042226;28;47118;-56
2021/05/26 07:07:37;;;;;;;;;4.67;3.00;;;;;19.69;42.82;100974.09;5041325;28;45442;-55
2021/05/26 07:10:04;;;;;;;;;3.33;1.67;;;;;19.71;42.73;100974.03;5041200;28;45386;-55
2021/05/26 07:12:30;;;;;;;;;2.33;1.67;;;;;19.72;42.70;100981.88;5029431;28;45398;-55
2021/05/26 07:14:56;;;;;;;;;3.00;1.67;;;;;19.74;42.63;100980.03;5021875;28;47210;-55
2021/05/26 07:17:21;;;;;;;;;6.67;4.00;;;;;19.75;42.74;100973.84;5022140;28;45251;-56
2021/05/26 07:19:47;;;;;;;;;1.33;1.33;;;;;19.76;42.42;100983.47;5021913;28;45719;-57
2021/05/26 07:22:12;;;;;;;;;2.33;2.33;;;;;19.77;42.71;100987.81;5021662;28;45453;-56
2021/05/26 07:24:37;;;;;;;;;2.67;2.67;;;;;19.80;42.73;100989.50;5005638;28;46965;-57
2021/05/26 07:27:03;;;;;;;;;2.33;2.33;;;;;19.80;42.62;100995.63;5026161;28;45421;-57
2021/05/26 07:29:28;;;;;;;;;0.67;0.67;;;;;19.82;42.78;100990.28;5039174;28;45422;-57
2021/05/26 07:31:54;;;;;;;;;3.67;1.33;;;;;19.83;42.41;100999.91;5040885;28;45563;-56
2021/05/26 07:34:19;;;;;;;;;0.67;0.67;;;;;19.85;42.54;100992.81;5036015;28;62559;-56
2021/05/26 07:36:44;;;;;;;;;1.67;1.00;;;;;19.86;42.63;101012.13;5030618;28;45275;-56
2021/05/26 07:39:10;;;;;;;;;0.33;0.33;;;;;19.87;42.43;101014.72;5040145;28;58113;-57
2021/05/26 07:41:35;;;;;;;;;3.67;2.33;;;;;19.89;42.39;101010.25;5040133;28;55091;-59
2021/05/26 07:44:01;;;;;;;;;2.33;2.00;;;;;19.91;42.17;101008.44;5021530;28;45426;-58
2021/05/26 07:46:27;;;;;;;;;80.25;65.00;;;;;19.92;42.57;101015.41;5021941;28;45410;-57
2021/05/26 07:48:53;;;;;;;;;18.00;14.67;;;;;19.94;42.61;101018.84;5021241;28;56528;-58
2021/05/26 07:51:26;;;;;;;;;126.25;101.25;;;;;19.95;42.33;101017.06;5020393;28;45430;-56
2021/05/26 07:53:52;;;;;;;;;47.25;34.75;;;;;19.98;42.29;101023.97;5021511;28;47124;-59
2021/05/26 07:56:18;;;;;;;;;11.67;8.33;;;;;20.00;42.25;101027.44;5020168;28;45392;-59
2021/05/26 07:58:43;;;;;;;;;10.00;7.33;;;;;20.00;42.60;101017.75;5021307;28;45468;-56
2021/05/26 08:01:10;;;;;;;;;48.25;39.25;;;;;20.01;42.62;101029.16;5020995;28;52551;-57
2021/05/26 08:03:35;;;;;;;;;31.67;28.33;;;;;20.02;42.07;101031.75;5021412;28;45371;-57
2021/05/26 08:06:00;;;;;;;;;39.00;33.50;;;;;20.03;42.39;101036.09;5019079;28;67138;-57
2021/05/26 08:08:26;;;;;;;;;8.00;7.00;;;;;20.05;42.43;101044.78;5040086;28;50290;-57
2021/05/26 08:10:51;;;;;;;;;3.33;3.33;;;;;20.06;42.39;101043.00;5039860;28;45370;-58
2021/05/26 08:13:16;;;;;;;;;54.25;38.75;;;;;20.07;42.15;101050.00;5022265;28;63926;-57
2021/05/26 08:15:42;;;;;;;;;99.25;82.25;;;;;20.09;42.10;101040.28;5019977;28;48364;-58
2021/05/26 08:18:07;;;;;;;;;79.25;56.25;;;;;20.09;42.13;101043.75;5021317;28;45347;-58
2021/05/26 08:20:32;;;;;;;;;30.33;21.67;;;;;20.10;42.30;101042.00;5021995;28;45437;-58
2021/05/26 08:22:58;;;;;;;;;12.67;9.00;;;;;20.12;42.34;101048.03;5022228;28;46111;-58
2021/05/26 08:25:23;;;;;;;;;68.75;50.75;;;;;20.14;41.95;101054.13;5022032;28;61029;-57
2021/05/26 08:27:49;;;;;;;;;20.50;14.50;;;;;20.15;42.32;101053.19;5023663;28;45303;-57
2021/05/26 08:30:14;;;;;;;;;3.67;3.00;;;;;20.17;42.18;101058.44;5020887;28;49764;-58
2021/05/26 08:32:40;;;;;;;;;97.00;78.75;;;;;20.18;42.21;101049.63;5019913;28;45327;-57
2021/05/26 08:35:05;;;;;;;;;147.33;116.33;;;;;20.18;42.04;101057.53;5021219;28;45261;-58
2021/05/26 08:37:31;;;;;;;;;55.25;41.50;;;;;20.19;42.08;101064.50;5021203;28;45516;-58
2021/05/26 08:39:56;;;;;;;;;20.00;14.00;;;;;20.20;42.08;101055.66;5021201;28;45277;-58
2021/05/26 08:42:21;;;;;;;;;3.33;3.00;;;;;20.20;41.99;101059.16;5021313;28;47010;-58
2021/05/26 08:44:47;;;;;;;;;2.33;2.33;;;;;20.22;42.02;101067.00;5022286;28;45450;-59
2021/05/26 08:47:19;;;;;;;;;10.33;5.33;;;;;20.23;42.29;101071.34;5020919;28;45257;-58
2021/05/26 08:49:46;;;;;;;;;3.00;3.00;;;;;20.23;41.98;101068.72;5021436;28;45378;-58
2021/05/26 08:52:14;;;;;;;;;1.00;1.00;;;;;20.24;42.14;101063.41;5021013;28;45450;-58
2021/05/26 08:54:42;;;;;;;;;1.33;0.67;;;;;20.24;41.99;101066.06;5021136;28;45454;-58
2021/05/26 08:57:08;;;;;;;;;15.00;13.33;;;;;20.25;41.72;101065.13;5020936;28;45390;-58
2021/05/26 08:59:33;;;;;;;;;46.75;35.75;;;;;20.26;41.94;101068.63;5023278;28;45292;-57
2021/05/26 09:01:59;;;;;;;;;203.25;170.00;;;;;20.28;41.75;101066.78;5038700;28;54626;-58
2021/05/26 09:04:32;;;;;;;;;71.00;53.25;;;;;20.29;42.08;101070.28;5039589;28;45441;-57
2021/05/26 09:07:14;;;;;;;;;24.67;17.33;;;;;20.30;41.83;101069.34;5040739;28;45485;-57
2021/05/26 09:09:51;;;;;;;;;83.50;70.50;;;;;20.31;41.59;101066.69;5039275;28;45721;-56
2021/05/26 09:12:40;;;;;;;;;77.00;58.50;;;;;20.32;41.59;101068.41;5030839;28;45521;-57
2021/05/26 09:15:07;;;;;;;;;18.00;14.67;;;;;20.32;41.88;101076.31;5020597;28;45397;-57
2021/05/26 09:17:32;;;;;;;;;9.33;6.67;;;;;20.33;41.62;101072.75;5016047;28;45462;-56
2021/05/26 09:20:15;;;;;;;;;77.00;56.50;;;;;20.34;41.66;101069.22;5019997;28;45256;-57
2021/05/26 09:23:06;;;;;;;;;65.50;47.00;;;;;20.35;41.79;101083.22;5022587;28;47454;-56
2021/05/26 09:25:35;;;;;;;;;12.00;8.33;;;;;20.35;41.86;101070.91;5020496;28;45370;-57
2021/05/26 09:28:25;;;;;;;;;4.00;4.00;;;;;20.36;41.82;101077.03;5020648;28;45467;-57
2021/05/26 09:30:56;;;;;;;;;2.67;2.67;;;;;20.37;41.66;101084.03;5020872;28;45194;-57
2021/05/26 09:33:25;;;;;;;;;2.00;2.00;;;;;20.38;41.54;101080.50;5020324;28;47156;-58
2021/05/26 09:36:08;;;;;;;;;24.00;19.33;;;;;20.39;41.37;101079.56;5020158;28;45300;-56
2021/05/26 09:38:36;;;;;;;;;138.00;111.33;;;;;20.40;41.61;101082.13;5031604;28;45344;-57
2021/05/26 09:41:11;;;;;;;;;31.33;23.67;;;;;20.41;41.59;101085.66;5021220;28;45538;-56
2021/05/26 09:43:41;;;;;;;;;7.00;7.00;;;;;20.41;41.45;101086.50;5021666;28;46216;-58
2021/05/26 09:46:33;;;;;;;;;3.33;3.33;;;;;20.44;41.73;101095.22;5005755;28;45414;-57
2021/05/26 09:49:04;;;;;;;;;1.33;1.33;;;;;20.45;41.39;101089.03;5023419;28;45669;-58
2021/05/26 09:51:32;;;;;;;;;84.75;71.25;;;;;20.45;41.47;101095.13;5023850;28;45296;-58
2021/05/26 09:54:21;;;;;;;;;14.67;11.67;;;;;20.47;41.28;101092.47;5021855;28;46212;-58
2021/05/26 09:56:51;;;;;;;;;6.33;3.00;;;;;20.47;41.43;101095.94;5021934;28;45414;-58
2021/05/26 09:59:17;;;;;;;;;1.67;1.67;;;;;20.48;41.25;101105.56;5022085;28;45508;-57
2021/05/26 10:01:43;;;;;;;;;2.33;1.67;;;;;20.49;41.32;101111.72;5023738;28;45611;-55
2021/05/26 10:04:09;;;;;;;;;1.33;1.33;;;;;20.49;41.43;101103.81;5023386;28;45790;-57
2021/05/26 10:06:38;;;;;;;;;1.33;0.67;;;;;20.50;41.45;101102.88;5023287;28;45402;-56
2021/05/26 10:09:04;;;;;;;;;0.67;0.67;;;;;20.51;41.43;101105.47;5023161;28;45406;-57
2021/05/26 10:11:35;;;;;;;;;2.33;1.67;;;;;20.52;41.64;101115.09;5039314;28;45466;-57
2021/05/26 10:14:07;;;;;;;;;0.33;0.33;;;;;20.52;41.38;101111.56;5032451;28;45375;-58
2021/05/26 10:16:37;;;;;;;;;3.67;1.67;;;;;20.53;41.29;101105.38;5023257;28;45323;-57
2021/05/26 10:19:03;;;;;;;;;1.00;1.00;;;;;20.54;41.01;101100.09;5023274;28;45421;-58
2021/05/26 10:21:30;;;;;;;;;1.33;0.67;;;;;20.56;41.12;101116.69;5028151;28;45355;-56
2021/05/26 10:23:56;;;;;;;;;1.67;1.67;;;;;20.56;41.03;101116.69;5007091;28;47359;-57
2021/05/26 10:26:46;;;;;;;;;0.67;0.67;;;;;20.57;41.18;101112.28;5023332;28;45385;-58
2021/05/26 10:29:30;;;;;;;;;2.33;2.00;;;;;20.56;40.90;101108.78;5022938;28;45569;-58
2021/05/26 10:32:08;;;;;;;;;5.33;4.67;;;;;20.56;41.32;101111.44;5023321;28;45502;-58
2021/05/26 10:34:43;;;;;;;;;1.00;1.00;;;;;20.56;41.23;101113.19;5021755;28;46336;-57
2021/05/26 10:37:09;;;;;;;;;2.33;1.67;;;;;20.55;40.76;101119.38;5022736;28;45414;-57
2021/05/26 10:39:34;;;;;;;;;1.33;1.33;;;;;20.53;40.70;101111.53;5011518;28;45363;-57
2021/05/26 10:42:01;;;;;;;;;1.33;1.33;;;;;20.52;40.79;101120.38;5029615;28;45458;-55
2021/05/26 10:45:06;;;;;;;;;2.00;1.67;;;;;20.52;40.78;101123.00;5021556;28;47946;-55
2021/05/26 10:47:38;;;;;;;;;0.67;0.67;;;;;20.51;40.72;101123.03;5041822;28;45289;-56
2021/05/26 10:50:14;;;;;;;;;1.00;1.00;;;;;20.50;41.13;101121.31;5042568;28;45312;-56
2021/05/26 10:52:58;;;;;;;;;1.00;1.00;;;;;20.48;40.79;101125.81;5023373;28;45323;-56
2021/05/26 10:55:35;;;;;;;;;0.67;0.67;;;;;20.48;40.82;101117.91;5021262;28;47333;-55
2021/05/26 10:58:20;;;;;;;;;1.00;1.00;;;;;20.47;41.06;101113.56;5026527;28;45231;-55
2021/05/26 11:00:49;;;;;;;;;2.33;2.33;;;;;20.47;40.87;101121.47;5025252;28;45466;-56
2021/05/26 11:03:23;;;;;;;;;1.67;1.67;;;;;20.46;40.87;101119.75;5036681;28;45426;-57
2021/05/26 11:06:10;;;;;;;;;1.67;1.67;;;;;20.45;40.57;101118.84;5027381;28;45442;-57
2021/05/26 11:08:48;;;;;;;;;1.67;1.67;;;;;20.46;41.11;101119.75;5021057;28;45245;-57
2021/05/26 11:11:25;;;;;;;;;1.67;1.67;;;;;20.45;41.04;101123.28;5036817;28;45245;-57
2021/05/26 11:13:59;;;;;;;;;2.00;1.00;;;;;20.44;40.82;101119.78;5042164;28;45459;-58
2021/05/26 11:16:36;;;;;;;;;3.00;2.00;;;;;20.43;41.00;101127.75;5042278;28;46201;-57
2021/05/26 11:19:10;;;;;;;;;1.67;1.00;;;;;20.42;40.46;101121.59;5028389;28;45224;-58
2021/05/26 11:21:35;;;;;;;;;2.67;2.67;;;;;20.41;40.68;101118.13;5022347;28;45320;-58
2021/05/26 11:24:00;;;;;;;;;1.67;1.67;;;;;20.41;40.91;101114.63;5021895;28;55043;-58
2021/05/26 11:26:31;;;;;;;;;3.00;3.00;;;;;20.41;40.65;101110.22;5027294;28;45419;-56